sensor_id;sensor_type;location;lat;lon;timestamp;P1;durP1;ratioP1;P2;durP2;ratioP2
25988;SDS011;13778;48.236;9.894;2023-09-30T00:00:01;42.75;;;16.45;;
25988;SDS011;13778;48.236;9.894;2023-09-30T00:02:52;32.30;;;14.82;;
25988;SDS011;13778;48.236;9.894;2023-09-30T00:05:42;32.53;;;13.90;;
25988;SDS011;13778;48.236;9.894;2023-09-30T00:08:33;35.00;;;14.90;;
25988;SDS011;13778;48.236;9.894;2023-09-30T00:11:23;34.17;;;15.50;;
25988;SDS011;13778;48.236;9.894;2023-09-30T00:14:15;41.58;;;15.70;;
25988;SDS011;13778;48.236;9.894;2023-09-30T00:17:06;33.45;;;14.15;;
25988;SDS011;13778;48.236;9.894;2023-09-30T00:19:57;33.60;;;14.02;;
25988;SDS011;13778;48.236;9.894;2023-09-30T00:22:48;31.27;;;13.95;;
25988;SDS011;13778;48.236;9.894;2023-09-30T00:25:38;30.80;;;12.95;;
25988;SDS011;13778;48.236;9.894;2023-09-30T00:28:29;29.70;;;12.13;;
25988;SDS011;13778;48.236;9.894;2023-09-30T00:31:21;29.65;;;12.18;;
25988;SDS011;13778;48.236;9.894;2023-09-30T00:37:02;28.02;;;12.27;;
25988;SDS011;13778;48.236;9.894;2023-09-30T00:39:52;28.35;;;11.90;;
25988;SDS011;13778;48.236;9.894;2023-09-30T00:42:44;27.40;;;11.75;;
25988;SDS011;13778;48.236;9.894;2023-09-30T00:45:35;31.53;;;12.27;;
25988;SDS011;13778;48.236;9.894;2023-09-30T00:48:29;28.75;;;14.60;;
25988;SDS011;13778;48.236;9.894;2023-09-30T00:51:19;27.52;;;11.85;;
25988;SDS011;13778;48.236;9.894;2023-09-30T00:54:10;28.20;;;11.85;;
25988;SDS011;13778;48.236;9.894;2023-09-30T00:57:00;26.50;;;12.43;;
25988;SDS011;13778;48.236;9.894;2023-09-30T00:59:51;28.30;;;12.05;;
25988;SDS011;13778;48.236;9.894;2023-09-30T01:02:42;24.50;;;11.70;;
25988;SDS011;13778;48.236;9.894;2023-09-30T01:05:34;28.80;;;12.02;;
25988;SDS011;13778;48.236;9.894;2023-09-30T01:08:25;27.48;;;12.88;;
25988;SDS011;13778;48.236;9.894;2023-09-30T01:11:16;26.52;;;12.52;;
25988;SDS011;13778;48.236;9.894;2023-09-30T01:17:12;27.08;;;11.65;;
25988;SDS011;13778;48.236;9.894;2023-09-30T01:20:03;29.08;;;13.50;;
25988;SDS011;13778;48.236;9.894;2023-09-30T01:22:57;25.63;;;12.65;;
25988;SDS011;13778;48.236;9.894;2023-09-30T01:25:47;28.02;;;13.50;;
25988;SDS011;13778;48.236;9.894;2023-09-30T01:28:39;33.00;;;13.03;;
25988;SDS011;13778;48.236;9.894;2023-09-30T01:31:29;30.63;;;12.55;;
25988;SDS011;13778;48.236;9.894;2023-09-30T01:34:19;32.50;;;13.57;;
25988;SDS011;13778;48.236;9.894;2023-09-30T01:37:10;32.25;;;13.20;;
25988;SDS011;13778;48.236;9.894;2023-09-30T01:40:02;29.60;;;12.68;;
25988;SDS011;13778;48.236;9.894;2023-09-30T01:42:57;26.65;;;12.57;;
25988;SDS011;13778;48.236;9.894;2023-09-30T01:45:47;32.95;;;13.02;;
25988;SDS011;13778;48.236;9.894;2023-09-30T01:48:37;26.98;;;11.15;;
25988;SDS011;13778;48.236;9.894;2023-09-30T01:51:28;32.47;;;13.15;;
25988;SDS011;13778;48.236;9.894;2023-09-30T01:54:19;27.67;;;12.50;;
25988;SDS011;13778;48.236;9.894;2023-09-30T01:57:11;27.65;;;11.95;;
25988;SDS011;13778;48.236;9.894;2023-09-30T02:02:51;24.60;;;11.80;;
25988;SDS011;13778;48.236;9.894;2023-09-30T02:05:42;25.17;;;11.90;;
25988;SDS011;13778;48.236;9.894;2023-09-30T02:08:32;24.48;;;12.45;;
25988;SDS011;13778;48.236;9.894;2023-09-30T02:11:25;29.13;;;12.27;;
25988;SDS011;13778;48.236;9.894;2023-09-30T02:14:17;29.27;;;12.60;;
25988;SDS011;13778;48.236;9.894;2023-09-30T02:17:07;30.35;;;13.15;;
25988;SDS011;13778;48.236;9.894;2023-09-30T02:19:58;29.35;;;13.00;;
25988;SDS011;13778;48.236;9.894;2023-09-30T02:22:50;27.33;;;12.68;;
25988;SDS011;13778;48.236;9.894;2023-09-30T02:25:41;28.48;;;13.68;;
25988;SDS011;13778;48.236;9.894;2023-09-30T02:28:32;25.73;;;12.20;;
25988;SDS011;13778;48.236;9.894;2023-09-30T02:31:24;26.23;;;12.27;;
25988;SDS011;13778;48.236;9.894;2023-09-30T02:34:15;35.22;;;13.77;;
25988;SDS011;13778;48.236;9.894;2023-09-30T02:37:05;28.17;;;13.38;;
25988;SDS011;13778;48.236;9.894;2023-09-30T02:39:56;31.17;;;13.68;;
25988;SDS011;13778;48.236;9.894;2023-09-30T02:42:47;32.58;;;13.27;;
25988;SDS011;13778;48.236;9.894;2023-09-30T02:45:37;27.65;;;13.30;;
25988;SDS011;13778;48.236;9.894;2023-09-30T02:48:29;29.58;;;13.25;;
25988;SDS011;13778;48.236;9.894;2023-09-30T02:51:19;29.63;;;12.70;;
25988;SDS011;13778;48.236;9.894;2023-09-30T02:54:10;31.02;;;12.75;;
25988;SDS011;13778;48.236;9.894;2023-09-30T02:57:04;27.98;;;12.30;;
25988;SDS011;13778;48.236;9.894;2023-09-30T02:59:55;28.15;;;12.57;;
25988;SDS011;13778;48.236;9.894;2023-09-30T03:02:45;29.65;;;13.25;;
25988;SDS011;13778;48.236;9.894;2023-09-30T03:05:37;29.25;;;13.13;;
25988;SDS011;13778;48.236;9.894;2023-09-30T03:08:28;30.27;;;12.40;;
25988;SDS011;13778;48.236;9.894;2023-09-30T03:11:19;32.08;;;13.07;;
25988;SDS011;13778;48.236;9.894;2023-09-30T03:14:10;31.98;;;13.32;;
25988;SDS011;13778;48.236;9.894;2023-09-30T03:17:01;31.48;;;13.85;;
25988;SDS011;13778;48.236;9.894;2023-09-30T03:19:52;26.87;;;12.20;;
25988;SDS011;13778;48.236;9.894;2023-09-30T03:22:44;32.72;;;13.38;;
25988;SDS011;13778;48.236;9.894;2023-09-30T03:25:36;27.75;;;12.05;;
25988;SDS011;13778;48.236;9.894;2023-09-30T03:28:27;29.63;;;13.13;;
25988;SDS011;13778;48.236;9.894;2023-09-30T03:31:19;30.10;;;12.90;;
25988;SDS011;13778;48.236;9.894;2023-09-30T03:34:09;29.98;;;13.13;;
25988;SDS011;13778;48.236;9.894;2023-09-30T03:37:00;24.77;;;12.27;;
25988;SDS011;13778;48.236;9.894;2023-09-30T03:39:52;25.55;;;10.93;;
25988;SDS011;13778;48.236;9.894;2023-09-30T03:42:42;27.13;;;13.00;;
25988;SDS011;13778;48.236;9.894;2023-09-30T03:45:33;28.88;;;12.73;;
25988;SDS011;13778;48.236;9.894;2023-09-30T03:48:23;28.13;;;12.75;;
25988;SDS011;13778;48.236;9.894;2023-09-30T03:51:14;28.45;;;12.40;;
25988;SDS011;13778;48.236;9.894;2023-09-30T03:54:05;32.47;;;13.60;;
25988;SDS011;13778;48.236;9.894;2023-09-30T03:56:59;29.13;;;12.55;;
25988;SDS011;13778;48.236;9.894;2023-09-30T03:59:49;26.10;;;11.23;;
25988;SDS011;13778;48.236;9.894;2023-09-30T04:02:41;31.65;;;13.70;;
25988;SDS011;13778;48.236;9.894;2023-09-30T04:05:32;29.10;;;11.80;;
25988;SDS011;13778;48.236;9.894;2023-09-30T04:08:26;26.08;;;12.18;;
25988;SDS011;13778;48.236;9.894;2023-09-30T04:11:16;29.25;;;12.23;;
25988;SDS011;13778;48.236;9.894;2023-09-30T04:14:09;28.83;;;12.57;;
25988;SDS011;13778;48.236;9.894;2023-09-30T04:16:59;25.50;;;11.45;;
25988;SDS011;13778;48.236;9.894;2023-09-30T04:19:50;31.13;;;13.73;;
25988;SDS011;13778;48.236;9.894;2023-09-30T04:22:41;29.20;;;12.10;;
25988;SDS011;13778;48.236;9.894;2023-09-30T04:25:35;29.38;;;11.20;;
25988;SDS011;13778;48.236;9.894;2023-09-30T04:28:26;26.45;;;12.13;;
25988;SDS011;13778;48.236;9.894;2023-09-30T04:31:18;25.63;;;12.38;;
25988;SDS011;13778;48.236;9.894;2023-09-30T04:36:59;27.63;;;11.35;;
25988;SDS011;13778;48.236;9.894;2023-09-30T04:39:50;30.23;;;12.32;;
25988;SDS011;13778;48.236;9.894;2023-09-30T04:42:43;27.70;;;12.40;;
25988;SDS011;13778;48.236;9.894;2023-09-30T04:45:35;27.95;;;12.77;;
25988;SDS011;13778;48.236;9.894;2023-09-30T04:48:27;26.00;;;11.52;;
25988;SDS011;13778;48.236;9.894;2023-09-30T04:51:18;31.10;;;11.85;;
25988;SDS011;13778;48.236;9.894;2023-09-30T04:54:09;26.40;;;11.73;;
25988;SDS011;13778;48.236;9.894;2023-09-30T04:56:59;24.58;;;11.38;;
25988;SDS011;13778;48.236;9.894;2023-09-30T04:59:50;24.70;;;11.05;;
25988;SDS011;13778;48.236;9.894;2023-09-30T05:02:40;26.98;;;11.82;;
25988;SDS011;13778;48.236;9.894;2023-09-30T05:05:33;30.23;;;13.02;;
25988;SDS011;13778;48.236;9.894;2023-09-30T05:08:24;26.13;;;11.70;;
25988;SDS011;13778;48.236;9.894;2023-09-30T05:11:15;26.65;;;11.32;;
25988;SDS011;13778;48.236;9.894;2023-09-30T05:14:05;27.00;;;10.77;;
25988;SDS011;13778;48.236;9.894;2023-09-30T05:16:56;25.70;;;11.20;;
25988;SDS011;13778;48.236;9.894;2023-09-30T05:19:47;26.98;;;12.15;;
25988;SDS011;13778;48.236;9.894;2023-09-30T05:22:38;27.13;;;11.18;;
25988;SDS011;13778;48.236;9.894;2023-09-30T05:25:29;23.85;;;10.75;;
25988;SDS011;13778;48.236;9.894;2023-09-30T05:28:20;30.02;;;12.30;;
25988;SDS011;13778;48.236;9.894;2023-09-30T05:31:10;27.23;;;11.68;;
25988;SDS011;13778;48.236;9.894;2023-09-30T05:34:01;22.05;;;10.45;;
25988;SDS011;13778;48.236;9.894;2023-09-30T05:36:52;27.17;;;12.10;;
25988;SDS011;13778;48.236;9.894;2023-09-30T05:39:44;29.88;;;12.32;;
25988;SDS011;13778;48.236;9.894;2023-09-30T05:42:35;26.55;;;11.55;;
25988;SDS011;13778;48.236;9.894;2023-09-30T05:45:26;30.00;;;12.00;;
25988;SDS011;13778;48.236;9.894;2023-09-30T05:48:17;24.00;;;11.02;;
25988;SDS011;13778;48.236;9.894;2023-09-30T05:51:07;30.05;;;12.38;;
25988;SDS011;13778;48.236;9.894;2023-09-30T05:53:58;27.83;;;12.90;;
25988;SDS011;13778;48.236;9.894;2023-09-30T05:56:50;23.65;;;12.13;;
25988;SDS011;13778;48.236;9.894;2023-09-30T05:59:40;27.95;;;11.55;;
25988;SDS011;13778;48.236;9.894;2023-09-30T06:02:30;29.58;;;12.00;;
25988;SDS011;13778;48.236;9.894;2023-09-30T06:05:21;25.05;;;11.60;;
25988;SDS011;13778;48.236;9.894;2023-09-30T06:08:12;25.92;;;11.02;;
25988;SDS011;13778;48.236;9.894;2023-09-30T06:11:03;29.42;;;11.55;;
25988;SDS011;13778;48.236;9.894;2023-09-30T06:13:54;24.90;;;10.95;;
25988;SDS011;13778;48.236;9.894;2023-09-30T06:16:45;25.70;;;11.13;;
25988;SDS011;13778;48.236;9.894;2023-09-30T06:19:37;28.25;;;11.82;;
25988;SDS011;13778;48.236;9.894;2023-09-30T06:22:27;25.27;;;11.88;;
25988;SDS011;13778;48.236;9.894;2023-09-30T06:25:18;22.85;;;10.60;;
25988;SDS011;13778;48.236;9.894;2023-09-30T06:28:08;28.67;;;11.20;;
25988;SDS011;13778;48.236;9.894;2023-09-30T06:31:00;29.38;;;11.82;;
25988;SDS011;13778;48.236;9.894;2023-09-30T06:33:50;25.65;;;11.52;;
25988;SDS011;13778;48.236;9.894;2023-09-30T06:36:41;25.45;;;12.10;;
25988;SDS011;13778;48.236;9.894;2023-09-30T06:39:31;28.83;;;12.35;;
25988;SDS011;13778;48.236;9.894;2023-09-30T06:42:22;27.83;;;12.25;;
25988;SDS011;13778;48.236;9.894;2023-09-30T06:45:13;28.38;;;12.27;;
25988;SDS011;13778;48.236;9.894;2023-09-30T06:48:06;29.10;;;10.88;;
25988;SDS011;13778;48.236;9.894;2023-09-30T06:50:56;25.23;;;11.70;;
25988;SDS011;13778;48.236;9.894;2023-09-30T06:56:38;34.17;;;12.30;;
25988;SDS011;13778;48.236;9.894;2023-09-30T06:59:31;28.65;;;12.07;;
25988;SDS011;13778;48.236;9.894;2023-09-30T07:02:22;21.15;;;10.35;;
25988;SDS011;13778;48.236;9.894;2023-09-30T07:05:14;24.13;;;11.60;;
25988;SDS011;13778;48.236;9.894;2023-09-30T07:10:55;19.90;;;10.00;;
25988;SDS011;13778;48.236;9.894;2023-09-30T07:13:46;18.90;;;9.32;;
25988;SDS011;13778;48.236;9.894;2023-09-30T07:16:36;20.73;;;9.35;;
25988;SDS011;13778;48.236;9.894;2023-09-30T07:19:28;22.15;;;9.60;;
25988;SDS011;13778;48.236;9.894;2023-09-30T07:22:21;24.10;;;9.88;;
25988;SDS011;13778;48.236;9.894;2023-09-30T07:28:03;20.15;;;9.38;;
25988;SDS011;13778;48.236;9.894;2023-09-30T07:30:56;23.40;;;10.25;;
25988;SDS011;13778;48.236;9.894;2023-09-30T07:33:47;18.45;;;9.52;;
25988;SDS011;13778;48.236;9.894;2023-09-30T07:36:37;22.23;;;10.15;;
25988;SDS011;13778;48.236;9.894;2023-09-30T07:39:30;19.95;;;9.77;;
25988;SDS011;13778;48.236;9.894;2023-09-30T07:42:20;21.95;;;9.73;;
25988;SDS011;13778;48.236;9.894;2023-09-30T07:45:12;20.02;;;9.60;;
25988;SDS011;13778;48.236;9.894;2023-09-30T07:48:06;19.90;;;8.77;;
25988;SDS011;13778;48.236;9.894;2023-09-30T07:50:58;17.15;;;8.15;;
25988;SDS011;13778;48.236;9.894;2023-09-30T07:53:49;14.90;;;8.88;;
25988;SDS011;13778;48.236;9.894;2023-09-30T07:56:41;16.60;;;8.68;;
25988;SDS011;13778;48.236;9.894;2023-09-30T07:59:31;16.30;;;8.43;;
25988;SDS011;13778;48.236;9.894;2023-09-30T08:02:22;21.20;;;8.40;;
25988;SDS011;13778;48.236;9.894;2023-09-30T08:05:13;17.25;;;8.55;;
25988;SDS011;13778;48.236;9.894;2023-09-30T08:08:04;12.75;;;7.63;;
25988;SDS011;13778;48.236;9.894;2023-09-30T08:10:55;15.95;;;8.07;;
25988;SDS011;13778;48.236;9.894;2023-09-30T08:13:46;18.70;;;8.20;;
25988;SDS011;13778;48.236;9.894;2023-09-30T08:16:37;15.90;;;7.85;;
25988;SDS011;13778;48.236;9.894;2023-09-30T08:19:27;16.60;;;8.13;;
25988;SDS011;13778;48.236;9.894;2023-09-30T08:22:18;19.05;;;8.52;;
25988;SDS011;13778;48.236;9.894;2023-09-30T08:25:08;13.48;;;7.90;;
25988;SDS011;13778;48.236;9.894;2023-09-30T08:27:59;17.90;;;9.07;;
25988;SDS011;13778;48.236;9.894;2023-09-30T08:30:51;19.20;;;8.48;;
25988;SDS011;13778;48.236;9.894;2023-09-30T08:33:46;15.27;;;8.00;;
25988;SDS011;13778;48.236;9.894;2023-09-30T08:36:37;15.52;;;8.63;;
25988;SDS011;13778;48.236;9.894;2023-09-30T08:39:27;17.80;;;9.00;;
25988;SDS011;13778;48.236;9.894;2023-09-30T08:42:18;20.35;;;9.25;;
25988;SDS011;13778;48.236;9.894;2023-09-30T08:45:09;18.83;;;9.37;;
25988;SDS011;13778;48.236;9.894;2023-09-30T08:48:02;20.50;;;9.43;;
25988;SDS011;13778;48.236;9.894;2023-09-30T08:50:54;20.63;;;9.32;;
25988;SDS011;13778;48.236;9.894;2023-09-30T08:53:45;19.65;;;9.52;;
25988;SDS011;13778;48.236;9.894;2023-09-30T08:56:36;15.30;;;8.68;;
25988;SDS011;13778;48.236;9.894;2023-09-30T08:59:27;16.00;;;8.57;;
25988;SDS011;13778;48.236;9.894;2023-09-30T09:02:17;16.17;;;8.52;;
25988;SDS011;13778;48.236;9.894;2023-09-30T09:05:09;19.27;;;9.02;;
25988;SDS011;13778;48.236;9.894;2023-09-30T09:08:00;16.42;;;8.63;;
25988;SDS011;13778;48.236;9.894;2023-09-30T09:10:54;15.90;;;9.57;;
25988;SDS011;13778;48.236;9.894;2023-09-30T09:13:45;17.00;;;9.63;;
25988;SDS011;13778;48.236;9.894;2023-09-30T09:16:48;17.13;;;8.95;;
25988;SDS011;13778;48.236;9.894;2023-09-30T09:19:40;15.50;;;8.50;;
25988;SDS011;13778;48.236;9.894;2023-09-30T09:22:39;13.70;;;8.18;;
25988;SDS011;13778;48.236;9.894;2023-09-30T09:25:30;14.18;;;8.13;;
25988;SDS011;13778;48.236;9.894;2023-09-30T09:28:33;15.35;;;7.85;;
25988;SDS011;13778;48.236;9.894;2023-09-30T09:31:24;17.55;;;9.27;;
25988;SDS011;13778;48.236;9.894;2023-09-30T09:34:14;14.37;;;8.03;;
25988;SDS011;13778;48.236;9.894;2023-09-30T09:37:15;16.83;;;8.30;;
25988;SDS011;13778;48.236;9.894;2023-09-30T09:40:07;15.18;;;7.85;;
25988;SDS011;13778;48.236;9.894;2023-09-30T09:42:58;10.82;;;7.25;;
25988;SDS011;13778;48.236;9.894;2023-09-30T09:45:49;12.35;;;7.40;;
25988;SDS011;13778;48.236;9.894;2023-09-30T09:48:39;12.98;;;7.38;;
25988;SDS011;13778;48.236;9.894;2023-09-30T09:51:30;13.50;;;7.27;;
25988;SDS011;13778;48.236;9.894;2023-09-30T09:54:21;12.90;;;6.93;;
25988;SDS011;13778;48.236;9.894;2023-09-30T10:00:05;11.82;;;6.78;;
25988;SDS011;13778;48.236;9.894;2023-09-30T10:03:01;14.57;;;7.35;;
25988;SDS011;13778;48.236;9.894;2023-09-30T10:05:52;11.10;;;5.97;;
25988;SDS011;13778;48.236;9.894;2023-09-30T10:08:43;12.07;;;6.80;;
25988;SDS011;13778;48.236;9.894;2023-09-30T10:14:29;15.48;;;7.60;;
25988;SDS011;13778;48.236;9.894;2023-09-30T10:17:25;14.18;;;7.03;;
25988;SDS011;13778;48.236;9.894;2023-09-30T10:20:37;13.68;;;7.65;;
25988;SDS011;13778;48.236;9.894;2023-09-30T10:23:28;15.77;;;7.30;;
25988;SDS011;13778;48.236;9.894;2023-09-30T10:26:22;13.13;;;6.65;;
25988;SDS011;13778;48.236;9.894;2023-09-30T10:29:12;15.60;;;6.70;;
25988;SDS011;13778;48.236;9.894;2023-09-30T10:32:03;15.02;;;7.70;;
25988;SDS011;13778;48.236;9.894;2023-09-30T10:34:56;15.25;;;7.57;;
25988;SDS011;13778;48.236;9.894;2023-09-30T10:40:37;15.95;;;6.72;;
25988;SDS011;13778;48.236;9.894;2023-09-30T10:43:28;17.17;;;7.97;;
25988;SDS011;13778;48.236;9.894;2023-09-30T10:46:32;12.77;;;7.00;;
25988;SDS011;13778;48.236;9.894;2023-09-30T10:49:33;13.82;;;7.18;;
25988;SDS011;13778;48.236;9.894;2023-09-30T10:52:26;13.20;;;7.60;;
25988;SDS011;13778;48.236;9.894;2023-09-30T10:55:17;15.20;;;7.43;;
25988;SDS011;13778;48.236;9.894;2023-09-30T10:58:09;13.82;;;7.35;;
25988;SDS011;13778;48.236;9.894;2023-09-30T11:00:59;15.30;;;7.40;;
25988;SDS011;13778;48.236;9.894;2023-09-30T11:03:50;14.15;;;7.75;;
25988;SDS011;13778;48.236;9.894;2023-09-30T11:06:48;17.45;;;7.85;;
25988;SDS011;13778;48.236;9.894;2023-09-30T11:09:40;18.65;;;8.27;;
25988;SDS011;13778;48.236;9.894;2023-09-30T11:12:31;16.15;;;8.45;;
25988;SDS011;13778;48.236;9.894;2023-09-30T11:15:22;16.50;;;8.57;;
25988;SDS011;13778;48.236;9.894;2023-09-30T11:18:12;18.90;;;8.70;;
25988;SDS011;13778;48.236;9.894;2023-09-30T11:21:04;18.58;;;9.77;;
25988;SDS011;13778;48.236;9.894;2023-09-30T11:23:54;20.90;;;9.88;;
25988;SDS011;13778;48.236;9.894;2023-09-30T11:26:46;17.95;;;9.70;;
25988;SDS011;13778;48.236;9.894;2023-09-30T11:32:27;22.65;;;10.82;;
25988;SDS011;13778;48.236;9.894;2023-09-30T11:35:24;21.23;;;11.15;;
25988;SDS011;13778;48.236;9.894;2023-09-30T11:38:16;20.02;;;10.00;;
25988;SDS011;13778;48.236;9.894;2023-09-30T11:41:07;23.75;;;10.35;;
25988;SDS011;13778;48.236;9.894;2023-09-30T11:44:00;20.33;;;10.27;;
25988;SDS011;13778;48.236;9.894;2023-09-30T11:46:50;18.75;;;9.93;;
25988;SDS011;13778;48.236;9.894;2023-09-30T11:49:43;20.52;;;9.50;;
25988;SDS011;13778;48.236;9.894;2023-09-30T11:52:34;20.35;;;10.68;;
25988;SDS011;13778;48.236;9.894;2023-09-30T11:55:25;22.33;;;10.47;;
25988;SDS011;13778;48.236;9.894;2023-09-30T11:58:16;20.80;;;10.02;;
25988;SDS011;13778;48.236;9.894;2023-09-30T12:01:09;20.98;;;10.32;;
25988;SDS011;13778;48.236;9.894;2023-09-30T12:04:03;19.35;;;10.02;;
25988;SDS011;13778;48.236;9.894;2023-09-30T12:06:53;20.45;;;9.60;;
25988;SDS011;13778;48.236;9.894;2023-09-30T12:09:43;19.40;;;10.35;;
25988;SDS011;13778;48.236;9.894;2023-09-30T12:12:34;20.47;;;9.27;;
25988;SDS011;13778;48.236;9.894;2023-09-30T12:15:24;18.40;;;9.60;;
25988;SDS011;13778;48.236;9.894;2023-09-30T12:18:17;18.27;;;10.23;;
25988;SDS011;13778;48.236;9.894;2023-09-30T12:21:12;16.55;;;8.45;;
25988;SDS011;13778;48.236;9.894;2023-09-30T12:24:03;16.17;;;9.30;;
25988;SDS011;13778;48.236;9.894;2023-09-30T12:26:54;17.23;;;9.38;;
25988;SDS011;13778;48.236;9.894;2023-09-30T12:29:44;19.60;;;10.02;;
25988;SDS011;13778;48.236;9.894;2023-09-30T12:32:37;21.48;;;9.77;;
25988;SDS011;13778;48.236;9.894;2023-09-30T12:35:30;20.67;;;10.65;;
25988;SDS011;13778;48.236;9.894;2023-09-30T12:38:21;19.40;;;10.07;;
25988;SDS011;13778;48.236;9.894;2023-09-30T12:41:12;22.30;;;10.45;;
25988;SDS011;13778;48.236;9.894;2023-09-30T12:44:03;20.30;;;9.70;;
25988;SDS011;13778;48.236;9.894;2023-09-30T12:46:53;17.88;;;9.50;;
25988;SDS011;13778;48.236;9.894;2023-09-30T12:49:44;21.23;;;10.25;;
25988;SDS011;13778;48.236;9.894;2023-09-30T12:52:36;19.25;;;10.07;;
25988;SDS011;13778;48.236;9.894;2023-09-30T12:55:27;22.20;;;10.18;;
25988;SDS011;13778;48.236;9.894;2023-09-30T12:58:18;19.77;;;10.65;;
25988;SDS011;13778;48.236;9.894;2023-09-30T13:01:08;21.30;;;9.93;;
25988;SDS011;13778;48.236;9.894;2023-09-30T13:03:59;23.83;;;10.77;;
25988;SDS011;13778;48.236;9.894;2023-09-30T13:06:49;19.40;;;9.88;;
25988;SDS011;13778;48.236;9.894;2023-09-30T13:09:41;21.05;;;10.60;;
25988;SDS011;13778;48.236;9.894;2023-09-30T13:12:32;20.23;;;10.30;;
25988;SDS011;13778;48.236;9.894;2023-09-30T13:15:23;23.65;;;11.90;;
25988;SDS011;13778;48.236;9.894;2023-09-30T13:18:15;18.90;;;10.13;;
25988;SDS011;13778;48.236;9.894;2023-09-30T13:21:05;23.35;;;10.75;;
25988;SDS011;13778;48.236;9.894;2023-09-30T13:23:56;22.10;;;10.48;;
25988;SDS011;13778;48.236;9.894;2023-09-30T13:26:48;21.08;;;10.10;;
25988;SDS011;13778;48.236;9.894;2023-09-30T13:29:41;24.20;;;11.43;;
25988;SDS011;13778;48.236;9.894;2023-09-30T13:32:31;25.98;;;11.02;;
25988;SDS011;13778;48.236;9.894;2023-09-30T13:35:24;18.40;;;9.57;;
25988;SDS011;13778;48.236;9.894;2023-09-30T13:38:15;20.80;;;10.55;;
25988;SDS011;13778;48.236;9.894;2023-09-30T13:41:05;20.80;;;9.55;;
25988;SDS011;13778;48.236;9.894;2023-09-30T13:43:57;18.50;;;10.25;;
25988;SDS011;13778;48.236;9.894;2023-09-30T13:49:38;21.15;;;10.27;;
25988;SDS011;13778;48.236;9.894;2023-09-30T13:52:28;24.73;;;10.70;;
25988;SDS011;13778;48.236;9.894;2023-09-30T13:55:19;21.20;;;10.15;;
25988;SDS011;13778;48.236;9.894;2023-09-30T13:58:10;19.85;;;10.32;;
25988;SDS011;13778;48.236;9.894;2023-09-30T14:01:02;20.25;;;10.07;;
25988;SDS011;13778;48.236;9.894;2023-09-30T14:09:35;20.02;;;10.25;;
25988;SDS011;13778;48.236;9.894;2023-09-30T14:12:25;17.95;;;9.32;;
25988;SDS011;13778;48.236;9.894;2023-09-30T14:15:16;21.57;;;10.33;;
25988;SDS011;13778;48.236;9.894;2023-09-30T14:18:08;17.67;;;9.82;;
25988;SDS011;13778;48.236;9.894;2023-09-30T14:23:50;21.33;;;10.40;;
25988;SDS011;13778;48.236;9.894;2023-09-30T14:26:40;20.98;;;10.32;;
25988;SDS011;13778;48.236;9.894;2023-09-30T14:29:32;21.92;;;10.68;;
25988;SDS011;13778;48.236;9.894;2023-09-30T14:32:22;18.25;;;10.07;;
25988;SDS011;13778;48.236;9.894;2023-09-30T14:35:14;19.30;;;10.55;;
25988;SDS011;13778;48.236;9.894;2023-09-30T14:38:05;19.35;;;10.40;;
25988;SDS011;13778;48.236;9.894;2023-09-30T14:40:56;25.25;;;10.73;;
25988;SDS011;13778;48.236;9.894;2023-09-30T14:43:46;23.55;;;10.48;;
25988;SDS011;13778;48.236;9.894;2023-09-30T14:46:37;22.27;;;9.98;;
25988;SDS011;13778;48.236;9.894;2023-09-30T14:49:27;22.48;;;10.35;;
25988;SDS011;13778;48.236;9.894;2023-09-30T14:52:19;21.85;;;10.52;;
25988;SDS011;13778;48.236;9.894;2023-09-30T14:58:00;22.48;;;10.45;;
25988;SDS011;13778;48.236;9.894;2023-09-30T15:00:50;24.33;;;10.32;;
25988;SDS011;13778;48.236;9.894;2023-09-30T15:03:42;23.33;;;10.15;;
25988;SDS011;13778;48.236;9.894;2023-09-30T15:06:33;23.50;;;9.05;;
25988;SDS011;13778;48.236;9.894;2023-09-30T15:09:25;19.75;;;10.27;;
25988;SDS011;13778;48.236;9.894;2023-09-30T15:12:16;30.60;;;13.23;;
25988;SDS011;13778;48.236;9.894;2023-09-30T15:15:06;34.35;;;14.63;;
25988;SDS011;13778;48.236;9.894;2023-09-30T15:17:58;20.95;;;10.80;;
25988;SDS011;13778;48.236;9.894;2023-09-30T15:20:49;19.73;;;10.00;;
25988;SDS011;13778;48.236;9.894;2023-09-30T15:23:40;22.58;;;10.63;;
25988;SDS011;13778;48.236;9.894;2023-09-30T15:26:32;23.08;;;10.85;;
25988;SDS011;13778;48.236;9.894;2023-09-30T15:29:23;19.27;;;9.90;;
25988;SDS011;13778;48.236;9.894;2023-09-30T15:32:14;20.38;;;9.65;;
25988;SDS011;13778;48.236;9.894;2023-09-30T15:35:05;25.73;;;10.35;;
25988;SDS011;13778;48.236;9.894;2023-09-30T15:37:55;24.95;;;10.10;;
25988;SDS011;13778;48.236;9.894;2023-09-30T15:40:50;22.38;;;10.13;;
25988;SDS011;13778;48.236;9.894;2023-09-30T15:43:41;22.15;;;9.38;;
25988;SDS011;13778;48.236;9.894;2023-09-30T15:46:32;17.77;;;9.85;;
25988;SDS011;13778;48.236;9.894;2023-09-30T15:49:22;21.88;;;9.38;;
25988;SDS011;13778;48.236;9.894;2023-09-30T15:52:13;19.38;;;10.05;;
25988;SDS011;13778;48.236;9.894;2023-09-30T15:55:04;19.48;;;9.57;;
25988;SDS011;13778;48.236;9.894;2023-09-30T15:57:55;20.87;;;9.73;;
25988;SDS011;13778;48.236;9.894;2023-09-30T16:00:46;20.58;;;10.18;;
25988;SDS011;13778;48.236;9.894;2023-09-30T16:03:37;20.45;;;10.57;;
25988;SDS011;13778;48.236;9.894;2023-09-30T16:06:28;19.02;;;9.65;;
25988;SDS011;13778;48.236;9.894;2023-09-30T16:09:18;22.13;;;10.50;;
25988;SDS011;13778;48.236;9.894;2023-09-30T16:12:09;23.17;;;10.60;;
25988;SDS011;13778;48.236;9.894;2023-09-30T16:15:00;21.47;;;10.50;;
25988;SDS011;13778;48.236;9.894;2023-09-30T16:17:56;18.00;;;9.57;;
25988;SDS011;13778;48.236;9.894;2023-09-30T16:20:47;20.92;;;10.48;;
25988;SDS011;13778;48.236;9.894;2023-09-30T16:23:37;28.30;;;10.77;;
25988;SDS011;13778;48.236;9.894;2023-09-30T16:26:28;19.20;;;10.50;;
25988;SDS011;13778;48.236;9.894;2023-09-30T16:29:19;16.55;;;8.50;;
25988;SDS011;13778;48.236;9.894;2023-09-30T16:32:09;18.23;;;9.68;;
25988;SDS011;13778;48.236;9.894;2023-09-30T16:35:01;19.33;;;9.63;;
25988;SDS011;13778;48.236;9.894;2023-09-30T16:37:52;19.83;;;10.07;;
25988;SDS011;13778;48.236;9.894;2023-09-30T16:40:45;17.60;;;9.82;;
25988;SDS011;13778;48.236;9.894;2023-09-30T16:43:36;20.08;;;9.23;;
25988;SDS011;13778;48.236;9.894;2023-09-30T16:46:28;22.33;;;10.38;;
25988;SDS011;13778;48.236;9.894;2023-09-30T16:49:19;19.52;;;11.13;;
25988;SDS011;13778;48.236;9.894;2023-09-30T16:52:11;21.92;;;10.65;;
25988;SDS011;13778;48.236;9.894;2023-09-30T16:55:01;20.02;;;9.48;;
25988;SDS011;13778;48.236;9.894;2023-09-30T16:57:52;22.33;;;11.00;;
25988;SDS011;13778;48.236;9.894;2023-09-30T17:00:42;22.05;;;9.60;;
25988;SDS011;13778;48.236;9.894;2023-09-30T17:03:32;20.15;;;10.27;;
25988;SDS011;13778;48.236;9.894;2023-09-30T17:06:23;16.27;;;9.02;;
25988;SDS011;13778;48.236;9.894;2023-09-30T17:09:14;16.35;;;8.73;;
25988;SDS011;13778;48.236;9.894;2023-09-30T17:14:55;20.95;;;12.00;;
25988;SDS011;13778;48.236;9.894;2023-09-30T17:17:45;19.92;;;9.75;;
25988;SDS011;13778;48.236;9.894;2023-09-30T17:20:40;17.45;;;9.20;;
25988;SDS011;13778;48.236;9.894;2023-09-30T17:23:30;23.15;;;9.80;;
25988;SDS011;13778;48.236;9.894;2023-09-30T17:26:22;17.88;;;9.63;;
25988;SDS011;13778;48.236;9.894;2023-09-30T17:29:12;17.92;;;11.15;;
25988;SDS011;13778;48.236;9.894;2023-09-30T17:32:03;26.00;;;11.40;;
25988;SDS011;13778;48.236;9.894;2023-09-30T17:34:55;20.40;;;10.90;;